Time;durP1;ratioP1;P1;durP2;ratioP2;P2;SDS_P1;SDS_P2;PMS_P1;PMS_P2;Temp;Humidity;BMP_temperature;BMP_pressure;BME280_temperature;BME280_humidity;BME280_pressure;Samples;Min_cycle;Max_cycle;Signal;HPM_P1;HPM_P2
2021/12/10 00:00:16;;;;;;;72.85;35.90;;;1.90;99.90;;;;;;5076288;28;20221;-80
2021/12/10 00:02:46;;;;;;;75.40;36.17;;;1.90;99.90;;;;;;5076389;28;20225;-79
2021/12/10 00:05:15;;;;;;;74.82;34.55;;;1.90;99.90;;;;;;5076094;28;20219;-79
2021/12/10 00:07:43;;;;;;;77.78;31.50;;;1.90;99.90;;;;;;5076286;28;20658;-79
2021/12/10 00:10:14;;;;;;;67.95;34.95;;;1.80;99.90;;;;;;5076095;28;20711;-79
2021/12/10 00:12:50;;;;;;;69.93;36.08;;;1.80;99.90;;;;;;5075977;28;20280;-78
2021/12/10 00:15:19;;;;;;;72.60;34.38;;;1.90;99.90;;;;;;5075940;28;20189;-79
2021/12/10 00:17:45;;;;;;;73.30;36.90;;;1.80;99.90;;;;;;5076016;28;20202;-79
2021/12/10 00:20:13;;;;;;;74.03;36.10;;;1.80;99.90;;;;;;5075714;28;20640;-79
2021/12/10 00:22:49;;;;;;;81.63;34.92;;;1.80;99.90;;;;;;5075844;28;20189;-79
2021/12/10 00:25:20;;;;;;;71.30;35.40;;;1.80;99.90;;;;;;5075662;28;20254;-79
2021/12/10 00:27:50;;;;;;;73.20;34.25;;;1.80;99.90;;;;;;5076017;28;20333;-79
2021/12/10 00:30:24;;;;;;;73.53;37.60;;;1.80;99.90;;;;;;5075714;28;20599;-79
2021/12/10 00:33:01;;;;;;;73.05;34.63;;;1.80;99.90;;;;;;5075704;28;20193;-79
2021/12/10 00:35:31;;;;;;;68.03;34.47;;;1.80;99.90;;;;;;5075338;28;20660;-78
2021/12/10 00:37:58;;;;;;;67.28;32.15;;;1.80;99.90;;;;;;5075547;28;20277;-79
2021/12/10 00:40:26;;;;;;;68.55;32.72;;;1.80;99.90;;;;;;5074955;28;20221;-79
2021/12/10 00:42:56;;;;;;;75.18;35.85;;;1.80;99.90;;;;;;5075527;28;20275;-79
2021/12/10 00:45:23;;;;;;;81.80;36.60;;;1.90;99.90;;;;;;5075178;28;20291;-78
2021/12/10 00:47:51;;;;;;;68.50;34.25;;;1.90;99.90;;;;;;5075219;28;20217;-79
2021/12/10 00:50:21;;;;;;;66.47;35.47;;;1.90;99.90;;;;;;5075212;28;20280;-80
2021/12/10 00:52:48;;;;;;;75.35;35.92;;;1.80;99.90;;;;;;5075207;28;20247;-79
2021/12/10 00:55:17;;;;;;;73.03;33.17;;;1.80;99.90;;;;;;5074954;28;20196;-79
2021/12/10 00:57:44;;;;;;;67.45;35.70;;;1.80;99.90;;;;;;5074952;28;20227;-77
2021/12/10 01:00:16;;;;;;;72.20;33.00;;;1.80;99.90;;;;;;5075054;28;20270;-77
2021/12/10 01:02:43;;;;;;;68.20;33.60;;;1.80;99.90;;;;;;5074729;28;20225;-77
2021/12/10 01:05:11;;;;;;;73.72;36.17;;;1.80;99.90;;;;;;5074947;28;20253;-77
2021/12/10 01:07:38;;;;;;;77.10;36.97;;;1.80;99.90;;;;;;5075058;28;20232;-80
2021/12/10 01:10:14;;;;;;;64.97;33.60;;;1.80;99.90;;;;;;5074833;28;20224;-79
2021/12/10 01:12:45;;;;;;;69.18;33.42;;;1.80;99.90;;;;;;5074891;28;20598;-80
2021/12/10 01:15:37;;;;;;;73.47;32.28;;;1.80;99.90;;;;;;5074803;28;20193;-78
2021/12/10 01:24:06;;;;;;;71.82;32.28;;;1.80;99.90;;;;;;5032648;28;20193;-79
2021/12/10 01:26:53;;;;;;;67.13;34.92;;;1.80;99.90;;;;;;5059643;28;20299;-80
2021/12/10 01:29:23;;;;;;;61.65;32.33;;;1.90;99.90;;;;;;5074588;28;20200;-80
2021/12/10 01:31:54;;;;;;;69.47;34.10;;;1.90;99.90;;;;;;5074267;28;20656;-80
2021/12/10 01:34:22;;;;;;;67.68;32.92;;;1.90;99.90;;;;;;5074307;28;20284;-80
2021/12/10 01:36:49;;;;;;;71.88;34.13;;;1.90;99.90;;;;;;5074377;28;20254;-80
2021/12/10 01:39:19;;;;;;;75.05;36.53;;;1.90;99.90;;;;;;5074015;28;20224;-80
2021/12/10 01:41:54;;;;;;;72.22;36.05;;;1.90;99.90;;;;;;5074280;28;20228;-80
2021/12/10 01:44:28;;;;;;;67.97;33.22;;;1.90;99.90;;;;;;5073847;28;20197;-80
2021/12/10 01:46:58;;;;;;;75.28;34.58;;;1.90;99.90;;;;;;5074192;28;20197;-80
2021/12/10 01:49:25;;;;;;;80.20;38.00;;;1.90;99.90;;;;;;5073912;28;20189;-79
2021/12/10 01:51:54;;;;;;;76.63;35.83;;;2.00;99.90;;;;;;5073980;28;20194;-79
2021/12/10 01:54:25;;;;;;;76.38;34.20;;;2.00;99.90;;;;;;5073890;28;20221;-78
2021/12/10 01:56:55;;;;;;;70.50;34.95;;;1.90;99.90;;;;;;5073789;28;20220;-78
2021/12/10 01:59:22;;;;;;;75.43;35.40;;;1.90;99.90;;;;;;5074028;28;20284;-78
2021/12/10 02:01:51;;;;;;;82.13;35.13;;;1.90;99.90;;;;;;5073890;28;20228;-78
2021/12/10 02:04:23;;;;;;;70.05;34.92;;;1.90;99.90;;;;;;5073848;28;20693;-78
2021/12/10 02:06:50;;;;;;;69.80;35.85;;;1.80;99.90;;;;;;5073651;28;20217;-80
2021/12/10 02:09:17;;;;;;;68.13;34.70;;;1.90;99.90;;;;;;5073744;28;20240;-80
2021/12/10 02:11:45;;;;;;;71.57;34.20;;;2.30;99.90;;;;;;5073410;28;20217;-80
2021/12/10 02:14:12;;;;;;;79.70;37.53;;;1.90;99.90;;;;;;5073620;28;20232;-80
2021/12/10 02:16:39;;;;;;;76.53;33.35;;;1.90;99.90;;;;;;5073422;28;20339;-80
2021/12/10 02:19:07;;;;;;;71.10;33.97;;;1.80;99.90;;;;;;5073484;28;20247;-80
2021/12/10 02:21:39;;;;;;;77.30;35.30;;;1.90;99.90;;;;;;5073118;28;20277;-80
2021/12/10 02:24:07;;;;;;;69.82;34.63;;;1.90;99.90;;;;;;5073370;28;20224;-80
2021/12/10 02:26:36;;;;;;;77.35;36.20;;;1.90;99.90;;;;;;5073270;28;20252;-79
2021/12/10 02:29:05;;;;;;;74.18;35.88;;;1.90;99.90;;;;;;5073494;28;20189;-79
2021/12/10 02:31:31;;;;;;;80.93;37.92;;;1.90;99.90;;;;;;5073426;28;20213;-80
2021/12/10 02:34:01;;;;;;;81.30;37.70;;;1.90;99.90;;;;;;5072754;28;20221;-80
2021/12/10 02:36:28;;;;;;;76.30;36.25;;;1.80;99.90;;;;;;5073250;28;20675;-79
2021/12/10 02:38:57;;;;;;;77.93;36.03;;;1.90;99.90;;;;;;5073060;28;20286;-79
2021/12/10 02:41:29;;;;;;;77.78;35.28;;;1.90;99.90;;;;;;5072983;28;20280;-80
2021/12/10 02:43:58;;;;;;;77.30;36.92;;;1.90;99.90;;;;;;5073006;28;20675;-80
2021/12/10 02:46:25;;;;;;;69.95;35.28;;;1.90;99.90;;;;;;5072886;28;20680;-80
2021/12/10 02:48:52;;;;;;;68.72;35.78;;;2.40;99.90;;;;;;5072920;28;20225;-80
2021/12/10 02:51:18;;;;;;;78.80;35.33;;;1.90;99.90;;;;;;5072830;28;20676;-79
2021/12/10 02:53:46;;;;;;;71.53;36.03;;;1.90;99.90;;;;;;5073230;28;20193;-79
2021/12/10 02:56:18;;;;;;;63.72;33.42;;;1.90;99.90;;;;;;5071628;28;20190;-79
2021/12/10 02:58:48;;;;;;;74.18;36.50;;;1.90;99.90;;;;;;5073151;28;20284;-79
2021/12/10 03:01:20;;;;;;;72.65;33.13;;;2.00;99.90;;;;;;5073031;28;20284;-78
2021/12/10 03:03:47;;;;;;;68.93;32.42;;;1.90;99.90;;;;;;5073031;28;20220;-79
2021/12/10 03:06:16;;;;;;;70.75;33.25;;;1.90;99.90;;;;;;5072650;28;20221;-79
2021/12/10 03:08:45;;;;;;;75.68;35.00;;;1.90;99.90;;;;;;5072426;28;20721;-78
2021/12/10 03:11:17;;;;;;;78.07;35.13;;;1.90;99.90;;;;;;5072693;28;20606;-78
2021/12/10 03:13:43;;;;;;;69.88;33.33;;;1.90;99.90;;;;;;5072763;28;20644;-79
2021/12/10 03:16:11;;;;;;;77.63;35.65;;;1.90;99.90;;;;;;5072728;28;20225;-79
2021/12/10 03:18:38;;;;;;;83.80;36.22;;;2.00;99.90;;;;;;5072849;28;20246;-78
2021/12/10 03:21:09;;;;;;;78.13;36.53;;;2.10;99.90;;;;;;5072639;28;20288;-78
2021/12/10 03:23:36;;;;;;;72.53;33.92;;;2.00;99.90;;;;;;5072039;28;20189;-78
2021/12/10 03:26:04;;;;;;;76.50;35.60;;;2.00;99.90;;;;;;5072334;28;20219;-78
2021/12/10 03:28:32;;;;;;;76.68;33.65;;;1.90;99.90;;;;;;5072584;28;20292;-78
2021/12/10 03:30:59;;;;;;;76.97;37.30;;;1.90;99.90;;;;;;5072329;28;20282;-78
2021/12/10 03:33:26;;;;;;;73.57;35.20;;;2.00;99.90;;;;;;5072634;28;20281;-78
2021/12/10 03:35:52;;;;;;;71.50;34.00;;;2.00;99.90;;;;;;5072164;28;20716;-79
2021/12/10 03:38:24;;;;;;;71.60;35.33;;;2.00;99.90;;;;;;5072272;28;20252;-79
2021/12/10 03:40:53;;;;;;;75.93;35.47;;;2.00;99.90;;;;;;5072581;28;20280;-79
2021/12/10 03:43:20;;;;;;;77.80;34.65;;;2.00;99.90;;;;;;5072339;28;20250;-78
2021/12/10 03:45:52;;;;;;;80.03;37.22;;;2.00;99.90;;;;;;5072415;28;20309;-78
2021/12/10 03:48:22;;;;;;;78.28;35.88;;;2.00;99.90;;;;;;5072449;28;20223;-79
2021/12/10 03:50:50;;;;;;;75.15;33.78;;;2.00;99.90;;;;;;5072535;28;20283;-78
2021/12/10 03:53:18;;;;;;;70.53;34.40;;;2.00;99.90;;;;;;5072057;28;20281;-78
2021/12/10 03:55:45;;;;;;;75.40;34.83;;;2.00;99.90;;;;;;5072464;28;20225;-76
2021/12/10 03:58:11;;;;;;;73.32;35.17;;;2.00;99.90;;;;;;5072447;28;20235;-76
2021/12/10 04:00:42;;;;;;;78.65;37.85;;;2.00;99.90;;;;;;5072395;28;20231;-76
2021/12/10 04:03:10;;;;;;;85.88;36.58;;;2.00;99.90;;;;;;5071910;28;20196;-76
2021/12/10 04:05:37;;;;;;;73.35;38.70;;;1.90;99.90;;;;;;5072242;28;20303;-76
2021/12/10 04:08:04;;;;;;;79.90;36.30;;;1.90;99.90;;;;;;5074834;28;20193;-76
2021/12/10 04:10:31;;;;;;;67.35;31.85;;;1.90;99.90;;;;;;5075864;28;20244;-76
2021/12/10 04:12:57;;;;;;;77.82;36.17;;;2.00;99.90;;;;;;5075832;28;20276;-76
2021/12/10 04:15:24;;;;;;;74.55;35.08;;;2.10;99.90;;;;;;5075999;28;20280;-77
2021/12/10 04:17:54;;;;;;;71.95;36.17;;;2.00;99.90;;;;;;5075687;28;20189;-77
2021/12/10 04:20:26;;;;;;;77.93;35.65;;;1.90;99.90;;;;;;5075619;28;20276;-77
2021/12/10 04:22:53;;;;;;;78.88;38.30;;;1.90;99.90;;;;;;5075743;28;20193;-75
2021/12/10 04:25:24;;;;;;;73.38;34.78;;;1.90;99.90;;;;;;5075835;28;20228;-75
2021/12/10 04:27:53;;;;;;;75.45;36.05;;;1.90;99.90;;;;;;5075800;28;20189;-75
2021/12/10 04:30:20;;;;;;;83.70;36.50;;;1.90;99.90;;;;;;5075210;28;20224;-76
2021/12/10 04:32:47;;;;;;;76.80;35.88;;;1.80;99.90;;;;;;5075399;28;20205;-77
2021/12/10 04:35:15;;;;;;;65.95;33.78;;;1.90;99.90;;;;;;5075703;28;20189;-77
2021/12/10 04:37:43;;;;;;;74.50;34.80;;;1.80;99.90;;;;;;5075448;28;20291;-77
2021/12/10 04:40:16;;;;;;;77.28;36.13;;;1.80;99.90;;;;;;5075190;28;20220;-77
2021/12/10 04:42:43;;;;;;;74.20;35.33;;;1.80;99.90;;;;;;5075409;28;20231;-78
2021/12/10 04:45:10;;;;;;;75.50;35.47;;;1.80;99.90;;;;;;5075426;28;20220;-76
2021/12/10 04:47:37;;;;;;;66.95;33.05;;;1.70;99.90;;;;;;5074865;28;20217;-79
2021/12/10 04:50:06;;;;;;;66.13;33.00;;;1.70;99.90;;;;;;5074782;28;20272;-78
2021/12/10 04:52:34;;;;;;;78.18;34.70;;;1.70;99.90;;;;;;5074993;28;20236;-79
2021/12/10 04:55:02;;;;;;;76.40;35.03;;;1.70;99.90;;;;;;5075588;28;20196;-78
2021/12/10 04:57:28;;;;;;;71.60;34.45;;;1.70;99.90;;;;;;5074725;28;20229;-78
2021/12/10 04:59:55;;;;;;;76.68;34.97;;;1.70;99.90;;;;;;5075007;28;20240;-78
2021/12/10 05:02:22;;;;;;;68.60;34.33;;;1.70;99.90;;;;;;5074836;28;20243;-78
2021/12/10 05:04:48;;;;;;;74.70;34.03;;;1.70;99.90;;;;;;5075105;28;20189;-78
2021/12/10 05:07:17;;;;;;;76.95;36.03;;;2.00;99.90;;;;;;5074717;28;20278;-78
2021/12/10 05:09:45;;;;;;;71.53;32.95;;;1.80;99.90;;;;;;5074370;28;20228;-78
2021/12/10 05:12:12;;;;;;;74.50;36.13;;;2.00;99.90;;;;;;5074625;28;20224;-77
2021/12/10 05:14:39;;;;;;;80.50;35.60;;;1.90;99.90;;;;;;5074374;28;20284;-78
2021/12/10 05:17:08;;;;;;;78.88;37.45;;;1.90;99.90;;;;;;5074651;28;20280;-78
2021/12/10 05:19:37;;;;;;;82.55;36.97;;;1.90;99.90;;;;;;5073924;28;20217;-77
2021/12/10 05:22:06;;;;;;;86.70;36.35;;;1.90;99.90;;;;;;5074678;28;20712;-77
2021/12/10 05:24:33;;;;;;;70.60;35.35;;;1.90;99.90;;;;;;5074324;28;20273;-77
2021/12/10 05:27:00;;;;;;;64.90;32.63;;;1.90;99.90;;;;;;5074528;28;20358;-77
2021/12/10 05:29:28;;;;;;;74.72;35.42;;;1.90;99.90;;;;;;5074410;28;20231;-77
2021/12/10 05:31:56;;;;;;;79.68;35.05;;;1.90;99.90;;;;;;5074596;28;20284;-78
2021/12/10 05:34:23;;;;;;;80.07;36.70;;;1.90;99.90;;;;;;5074594;28;20268;-78
2021/12/10 05:36:50;;;;;;;74.32;34.83;;;1.90;99.90;;;;;;5074521;28;20185;-78
2021/12/10 05:39:17;;;;;;;78.05;35.67;;;1.90;99.90;;;;;;5074071;28;20249;-78
2021/12/10 05:41:45;;;;;;;75.82;36.78;;;2.00;99.90;;;;;;5073869;28;20189;-78
2021/12/10 05:44:11;;;;;;;84.65;38.83;;;2.00;99.90;;;;;;5074162;28;20185;-78
2021/12/10 05:46:39;;;;;;;91.53;38.00;;;2.00;99.90;;;;;;5074221;28;20216;-78
2021/12/10 05:49:06;;;;;;;72.47;35.80;;;2.00;99.90;;;;;;5074229;28;20185;-78
2021/12/10 05:51:33;;;;;;;82.30;37.75;;;2.00;99.90;;;;;;5073887;28;20557;-78
2021/12/10 05:54:00;;;;;;;76.50;36.67;;;2.00;99.90;;;;;;5073931;28;20284;-78
2021/12/10 05:56:26;;;;;;;83.22;37.60;;;2.00;99.90;;;;;;5073784;28;20198;-78
2021/12/10 05:58:53;;;;;;;79.65;36.67;;;2.00;99.90;;;;;;5074006;28;20216;-78
2021/12/10 06:01:22;;;;;;;98.38;44.60;;;2.00;99.90;;;;;;5073689;28;20341;-78
2021/12/10 06:03:53;;;;;;;107.30;50.25;;;2.00;99.90;;;;;;5073699;28;20185;-78
2021/12/10 06:06:21;;;;;;;91.25;42.20;;;2.00;99.90;;;;;;5073667;28;20217;-78
2021/12/10 06:08:48;;;;;;;85.72;40.55;;;2.00;99.90;;;;;;5073098;28;20280;-78
2021/12/10 06:11:16;;;;;;;82.97;39.42;;;2.00;99.90;;;;;;5073890;28;20280;-79
2021/12/10 06:13:43;;;;;;;79.03;39.17;;;2.00;99.90;;;;;;5073771;28;20552;-79
2021/12/10 06:16:10;;;;;;;78.65;39.25;;;2.00;99.90;;;;;;5073679;28;20212;-79
2021/12/10 06:18:36;;;;;;;88.10;37.20;;;2.00;99.90;;;;;;5073276;28;20291;-79
2021/12/10 06:21:05;;;;;;;83.75;38.30;;;2.00;99.90;;;;;;5073546;28;20245;-78
2021/12/10 06:23:32;;;;;;;83.07;38.95;;;1.90;99.90;;;;;;5073184;28;20704;-78
2021/12/10 06:25:59;;;;;;;85.65;39.88;;;2.00;99.90;;;;;;5073450;28;20263;-77
2021/12/10 06:28:26;;;;;;;82.97;37.70;;;2.00;99.90;;;;;;5073284;28;20278;-78
2021/12/10 06:30:53;;;;;;;81.45;38.10;;;1.90;99.90;;;;;;5073181;28;20672;-80
2021/12/10 06:33:23;;;;;;;77.03;35.67;;;2.00;99.90;;;;;;5073256;28;20223;-79
2021/12/10 06:35:52;;;;;;;87.78;40.55;;;2.00;99.90;;;;;;5072981;28;20205;-79
2021/12/10 06:38:21;;;;;;;84.40;37.53;;;2.00;99.90;;;;;;5072966;28;20257;-79
2021/12/10 06:40:49;;;;;;;85.00;38.28;;;1.90;99.90;;;;;;5073262;28;20286;-78
2021/12/10 06:43:16;;;;;;;85.57;40.17;;;2.00;99.90;;;;;;5072206;28;20269;-76
2021/12/10 06:45:45;;;;;;;82.82;38.05;;;1.80;99.90;;;;;;5072617;28;20213;-76
2021/12/10 06:48:13;;;;;;;81.07;38.03;;;1.80;99.90;;;;;;5072445;28;20209;-79
2021/12/10 06:50:42;;;;;;;86.05;36.20;;;1.80;99.90;;;;;;5072137;28;20276;-76
2021/12/10 06:53:09;;;;;;;91.88;38.38;;;1.80;99.90;;;;;;5070411;28;20243;-77
2021/12/10 06:55:37;;;;;;;91.93;40.28;;;1.80;99.90;;;;;;5072953;28;20653;-75
2021/12/10 06:58:05;;;;;;;78.53;38.40;;;1.80;99.90;;;;;;5072573;28;20268;-75
2021/12/10 07:00:37;;;;;;;86.05;37.28;;;1.80;99.90;;;;;;5072289;28;20223;-76
2021/12/10 07:03:04;;;;;;;82.07;36.55;;;1.80;99.90;;;;;;5071350;28;20280;-76
2021/12/10 07:05:30;;;;;;;83.22;38.35;;;1.80;99.90;;;;;;5072806;28;20280;-75
2021/12/10 07:08:00;;;;;;;85.22;39.30;;;1.80;99.90;;;;;;5070609;28;20761;-74
2021/12/10 07:10:26;;;;;;;86.55;38.25;;;1.80;99.90;;;;;;5072516;28;20280;-75
2021/12/10 07:12:54;;;;;;;84.38;36.45;;;1.80;99.90;;;;;;5072778;28;20235;-75
2021/12/10 07:15:21;;;;;;;86.40;37.20;;;1.90;99.90;;;;;;5072613;28;20283;-75
2021/12/10 07:17:50;;;;;;;83.25;37.38;;;1.80;99.90;;;;;;5072851;28;20189;-75
2021/12/10 07:20:22;;;;;;;84.53;37.22;;;1.80;99.90;;;;;;5072822;28;20223;-75
2021/12/10 07:22:49;;;;;;;76.28;36.30;;;1.80;99.90;;;;;;5072616;28;20729;-74
2021/12/10 07:25:16;;;;;;;88.03;38.25;;;1.80;99.90;;;;;;5072566;28;20742;-74
2021/12/10 07:27:43;;;;;;;83.15;37.47;;;1.80;99.90;;;;;;5072678;28;20323;-75
2021/12/10 07:30:12;;;;;;;81.22;38.45;;;1.80;99.90;;;;;;5072514;28;20221;-75
2021/12/10 07:32:39;;;;;;;91.47;36.67;;;1.80;99.90;;;;;;5072613;28;20220;-74
2021/12/10 07:35:08;;;;;;;78.20;37.97;;;1.80;99.90;;;;;;5072572;28;20557;-74
2021/12/10 07:37:34;;;;;;;79.32;39.10;;;1.80;99.90;;;;;;5072048;28;20336;-76
2021/12/10 07:40:01;;;;;;;93.00;37.55;;;1.90;99.90;;;;;;5072513;28;20727;-75
2021/12/10 07:42:28;;;;;;;79.65;36.78;;;1.90;99.90;;;;;;5074244;28;20732;-75
2021/12/10 07:44:56;;;;;;;84.28;37.88;;;1.90;99.90;;;;;;5076261;28;20279;-75
2021/12/10 07:47:25;;;;;;;78.55;34.70;;;1.90;99.90;;;;;;5076408;28;20307;-75
2021/12/10 07:49:53;;;;;;;79.40;36.42;;;2.00;99.90;;;;;;5076422;28;20197;-75
2021/12/10 07:52:24;;;;;;;76.50;33.53;;;2.00;99.90;;;;;;5076430;28;20189;-75
2021/12/10 07:54:51;;;;;;;85.55;38.10;;;2.00;99.90;;;;;;5076266;28;20228;-75
2021/12/10 07:57:19;;;;;;;82.28;36.13;;;2.00;99.90;;;;;;5076232;28;20285;-75
2021/12/10 07:59:48;;;;;;;77.35;34.30;;;2.00;99.90;;;;;;5076216;28;20283;-75
2021/12/10 08:02:15;;;;;;;71.22;33.65;;;2.10;99.90;;;;;;5074820;28;20216;-75
2021/12/10 08:04:43;;;;;;;81.88;37.47;;;2.10;99.90;;;;;;5076022;28;20616;-75
2021/12/10 08:07:12;;;;;;;78.60;37.08;;;2.30;99.90;;;;;;5076032;28;20240;-75
2021/12/10 08:09:39;;;;;;;78.93;36.20;;;2.20;99.90;;;;;;5075790;28;20211;-75
2021/12/10 08:12:06;;;;;;;73.18;37.33;;;2.20;99.90;;;;;;5075814;28;20235;-75
2021/12/10 08:14:33;;;;;;;73.40;32.75;;;2.30;99.90;;;;;;5076043;28;20230;-75
2021/12/10 08:17:00;;;;;;;81.35;36.78;;;2.30;99.90;;;;;;5075871;28;20240;-75
2021/12/10 08:19:26;;;;;;;74.15;35.25;;;2.30;99.90;;;;;;5075681;28;20228;-75
2021/12/10 08:21:55;;;;;;;78.72;37.28;;;2.40;99.90;;;;;;5075822;28;20664;-75
2021/12/10 08:24:22;;;;;;;66.55;34.88;;;2.40;99.90;;;;;;5075802;28;20197;-75
2021/12/10 08:26:49;;;;;;;73.22;34.53;;;2.50;99.90;;;;;;5075914;28;20276;-75
2021/12/10 08:29:19;;;;;;;68.05;34.10;;;2.50;99.90;;;;;;5075549;28;20717;-75
2021/12/10 08:31:46;;;;;;;70.68;35.50;;;2.60;99.90;;;;;;5075671;28;20255;-75
2021/12/10 08:34:12;;;;;;;72.22;34.28;;;2.60;99.90;;;;;;5075517;28;20277;-75
2021/12/10 08:36:39;;;;;;;65.75;33.83;;;2.60;99.90;;;;;;5075447;28;20280;-75
2021/12/10 08:39:10;;;;;;;75.35;35.40;;;2.60;99.90;;;;;;5075375;28;20249;-76
2021/12/10 08:41:39;;;;;;;72.43;34.60;;;2.60;99.90;;;;;;5075546;28;20227;-74
2021/12/10 08:44:06;;;;;;;79.53;36.15;;;2.60;99.90;;;;;;5075258;28;20196;-74
2021/12/10 08:46:34;;;;;;;80.97;35.10;;;2.60;99.90;;;;;;5075217;28;20718;-75
2021/12/10 08:49:01;;;;;;;73.00;35.35;;;2.60;99.90;;;;;;5075392;28;20312;-75
2021/12/10 08:51:31;;;;;;;72.45;32.67;;;2.60;99.90;;;;;;5075232;28;20247;-74
2021/12/10 08:54:00;;;;;;;70.30;34.47;;;2.70;99.90;;;;;;5074002;28;20728;-75
2021/12/10 08:56:28;;;;;;;70.07;34.47;;;2.70;99.90;;;;;;5074999;28;20280;-74
2021/12/10 08:58:56;;;;;;;65.40;34.97;;;2.70;99.90;;;;;;5075263;28;20292;-75
2021/12/10 09:01:33;;;;;;;78.47;35.05;;;2.90;99.90;;;;;;5074942;28;20564;-74
2021/12/10 09:04:02;;;;;;;77.05;37.05;;;2.80;99.90;;;;;;5075192;28;20228;-75
2021/12/10 09:06:33;;;;;;;79.15;35.92;;;2.90;99.90;;;;;;5074698;28;20196;-74
2021/12/10 09:09:00;;;;;;;76.53;36.38;;;2.90;99.90;;;;;;5074983;28;20303;-75
2021/12/10 09:11:28;;;;;;;67.40;34.47;;;2.90;99.90;;;;;;5074723;28;20284;-75
2021/12/10 09:13:55;;;;;;;73.07;35.42;;;3.00;99.90;;;;;;5074793;28;20225;-74
2021/12/10 09:16:28;;;;;;;74.63;34.95;;;3.00;99.90;;;;;;5074575;28;20232;-75
2021/12/10 09:18:58;;;;;;;72.85;36.30;;;3.10;99.90;;;;;;5074896;28;20228;-74
2021/12/10 09:21:26;;;;;;;74.22;36.60;;;3.10;99.90;;;;;;5074796;28;20614;-75
2021/12/10 09:23:55;;;;;;;79.78;35.70;;;3.20;99.90;;;;;;5074694;28;20277;-74
2021/12/10 09:26:27;;;;;;;65.28;34.10;;;3.20;99.90;;;;;;5074801;28;20595;-74
2021/12/10 09:28:56;;;;;;;77.63;36.83;;;3.20;99.90;;;;;;5074311;28;20217;-74
2021/12/10 09:31:24;;;;;;;75.70;36.88;;;3.30;99.90;;;;;;5074535;28;20213;-75
2021/12/10 09:33:52;;;;;;;73.43;37.47;;;3.40;99.90;;;;;;5074425;28;20193;-74
2021/12/10 09:36:19;;;;;;;73.65;35.28;;;3.50;99.90;;;;;;5074292;28;20272;-74
2021/12/10 09:38:46;;;;;;;67.13;32.97;;;3.60;99.90;;;;;;5074203;28;20308;-74
2021/12/10 09:41:13;;;;;;;81.03;34.65;;;3.60;99.90;;;;;;5074201;28;20221;-75
2021/12/10 09:43:42;;;;;;;72.43;35.42;;;3.60;99.90;;;;;;5074414;28;20224;-74
2021/12/10 09:46:11;;;;;;;69.85;34.20;;;3.70;99.90;;;;;;5074221;28;20292;-75
2021/12/10 09:48:38;;;;;;;80.97;38.92;;;3.70;99.90;;;;;;5074123;28;20312;-74
2021/12/10 09:51:08;;;;;;;67.15;34.80;;;3.70;99.90;;;;;;5074086;28;20216;-74
2021/12/10 09:53:37;;;;;;;72.55;33.00;;;3.80;99.90;;;;;;5073982;28;20235;-75
2021/12/10 09:56:06;;;;;;;61.95;33.88;;;3.90;99.90;;;;;;5074077;28;20288;-74
2021/12/10 09:58:33;;;;;;;61.75;31.73;;;4.00;99.90;;;;;;5073885;28;20189;-75
2021/12/10 10:01:03;;;;;;;63.47;30.90;;;4.00;99.90;;;;;;5073877;28;20280;-74
2021/12/10 10:03:35;;;;;;;64.55;32.47;;;4.10;99.90;;;;;;5073991;28;20208;-74
2021/12/10 10:06:02;;;;;;;68.47;35.72;;;4.20;99.90;;;;;;5073455;28;20193;-74
2021/12/10 10:08:29;;;;;;;63.70;33.15;;;4.30;99.90;;;;;;5073577;28;20307;-74
2021/12/10 10:10:58;;;;;;;66.22;32.55;;;4.30;99.90;;;;;;5073810;28;20189;-75
2021/12/10 10:13:31;;;;;;;58.60;30.70;;;4.30;99.90;;;;;;5073762;28;20738;-74
2021/12/10 10:15:59;;;;;;;64.72;32.55;;;4.30;99.90;;;;;;5073656;28;20244;-74
2021/12/10 10:18:28;;;;;;;59.80;31.35;;;4.40;99.90;;;;;;5073372;28;20216;-74
2021/12/10 10:20:59;;;;;;;62.35;32.10;;;4.50;99.90;;;;;;5071716;28;20276;-74
2021/12/10 10:23:28;;;;;;;58.78;32.45;;;4.50;99.90;;;;;;5073580;28;20600;-75
2021/12/10 10:25:58;;;;;;;60.13;32.03;;;4.60;99.90;;;;;;5073398;28;20547;-74
2021/12/10 10:28:25;;;;;;;59.03;30.98;;;4.60;99.90;;;;;;5073316;28;20266;-74
2021/12/10 10:30:58;;;;;;;65.13;32.72;;;4.70;99.90;;;;;;5073223;28;20363;-74
2021/12/10 10:33:26;;;;;;;65.45;32.20;;;4.70;99.90;;;;;;5073250;28;20185;-75
2021/12/10 10:35:55;;;;;;;70.90;33.65;;;4.60;99.90;;;;;;5073109;28;20236;-74
2021/12/10 10:38:23;;;;;;;65.13;32.22;;;4.60;99.90;;;;;;5072811;28;20761;-74
2021/12/10 10:40:54;;;;;;;68.63;33.15;;;4.60;99.90;;;;;;5073188;28;20217;-74
2021/12/10 10:43:23;;;;;;;65.47;34.03;;;4.60;99.90;;;;;;5073119;28;20186;-74
2021/12/10 10:45:50;;;;;;;68.28;33.88;;;4.70;99.90;;;;;;5072987;28;20200;-75
2021/12/10 10:48:18;;;;;;;67.13;31.60;;;4.60;99.90;;;;;;5073109;28;20213;-75
2021/12/10 10:50:52;;;;;;;59.45;31.13;;;4.60;99.90;;;;;;5073096;28;20231;-75
2021/12/10 10:53:21;;;;;;;71.25;35.92;;;4.50;99.90;;;;;;5073125;28;20235;-74
2021/12/10 10:55:59;;;;;;;62.05;32.50;;;4.50;99.90;;;;;;5073032;28;20242;-74
2021/12/10 10:58:30;;;;;;;66.35;30.25;;;4.40;99.90;;;;;;5072924;28;20216;-75
2021/12/10 11:01:09;;;;;;;70.70;35.63;;;4.30;99.90;;;;;;5073103;28;20610;-74
2021/12/10 11:03:40;;;;;;;72.72;35.97;;;4.30;99.90;;;;;;5073101;28;20189;-75
2021/12/10 11:06:12;;;;;;;63.70;32.55;;;4.30;99.90;;;;;;5072810;28;20189;-74
2021/12/10 11:08:43;;;;;;;65.97;33.17;;;4.30;99.90;;;;;;5072740;28;20304;-75
2021/12/10 11:11:15;;;;;;;63.35;33.47;;;4.30;99.90;;;;;;5073003;28;20300;-76
2021/12/10 11:13:44;;;;;;;61.47;32.03;;;4.20;99.90;;;;;;5072871;28;20287;-74
2021/12/10 11:16:12;;;;;;;66.47;34.10;;;4.20;99.90;;;;;;5072003;28;20679;-75
2021/12/10 11:18:44;;;;;;;60.40;31.60;;;4.10;99.90;;;;;;5072588;28;20231;-74
2021/12/10 11:21:11;;;;;;;68.68;32.58;;;4.10;99.90;;;;;;5072672;28;20266;-75
2021/12/10 11:23:39;;;;;;;52.90;29.27;;;4.20;99.90;;;;;;5072930;28;20228;-74
2021/12/10 11:26:07;;;;;;;55.58;28.45;;;4.10;99.90;;;;;;5072765;28;20276;-75
2021/12/10 11:28:39;;;;;;;56.67;28.48;;;4.10;99.90;;;;;;5072674;28;20235;-74
2021/12/10 11:31:09;;;;;;;55.85;29.25;;;4.10;99.90;;;;;;5072702;28;20283;-74
2021/12/10 11:33:39;;;;;;;56.70;28.65;;;4.10;99.90;;;;;;5072646;28;20223;-75
2021/12/10 11:36:09;;;;;;;60.38;29.45;;;4.00;99.90;;;;;;5072580;28;20199;-75
2021/12/10 11:38:37;;;;;;;58.45;30.58;;;4.00;99.90;;;;;;5072486;28;20278;-75
2021/12/10 11:41:06;;;;;;;61.75;32.17;;;4.00;99.90;;;;;;5072662;28;20189;-74
2021/12/10 11:43:56;;;;;;;73.28;31.70;;;4.00;99.90;;;;;;5072453;28;20227;-75
2021/12/10 11:46:47;;;;;;;66.35;31.63;;;3.90;99.90;;;;;;5072415;28;20235;-75
2021/12/10 11:49:22;;;;;;;61.08;31.58;;;3.90;99.90;;;;;;5072472;28;20217;-75
2021/12/10 11:51:55;;;;;;;80.82;30.50;;;3.90;99.90;;;;;;5072524;28;20219;-74
2021/12/10 11:54:26;;;;;;;72.13;33.60;;;3.90;99.90;;;;;;5072399;28;20197;-74
2021/12/10 11:56:57;;;;;;;64.20;31.90;;;3.90;99.90;;;;;;5072415;28;20185;-75
2021/12/10 11:59:28;;;;;;;67.15;34.13;;;3.90;99.90;;;;;;5072280;28;20726;-75
2021/12/10 12:01:57;;;;;;;66.93;31.27;;;3.90;99.90;;;;;;5072534;28;20200;-75
2021/12/10 12:04:28;;;;;;;70.88;32.80;;;3.80;99.90;;;;;;5072538;28;20193;-75
2021/12/10 12:07:16;;;;;;;71.22;33.95;;;3.90;99.90;;;;;;5072340;28;20242;-75
2021/12/10 12:09:45;;;;;;;74.57;32.95;;;3.90;99.90;;;;;;5072306;28;20758;-75
2021/12/10 12:12:14;;;;;;;72.50;32.88;;;3.90;99.90;;;;;;5072244;28;20288;-75
2021/12/10 12:14:50;;;;;;;77.18;33.45;;;3.90;99.90;;;;;;5072229;28;20224;-75
2021/12/10 12:17:39;;;;;;;60.10;30.55;;;3.80;99.90;;;;;;5072109;28;20394;-75
2021/12/10 12:20:22;;;;;;;70.22;32.83;;;3.90;99.90;;;;;;5072379;28;20201;-75
2021/12/10 12:25:41;;;;;;;77.35;31.02;;;3.90;99.90;;;;;;5071979;28;20656;-75
2021/12/10 12:28:11;;;;;;;62.35;28.92;;;3.80;99.90;;;;;;5073309;28;20289;-75
2021/12/10 12:30:56;;;;;;;64.95;30.77;;;3.80;99.90;;;;;;5075828;28;20323;-75
2021/12/10 12:33:25;;;;;;;66.60;30.05;;;3.90;99.90;;;;;;5075488;28;20676;-75
2021/12/10 12:35:52;;;;;;;60.08;28.33;;;3.90;99.90;;;;;;5075625;28;20212;-75
2021/12/10 12:38:23;;;;;;;67.28;29.88;;;3.90;99.90;;;;;;5075151;28;20225;-75
2021/12/10 12:41:07;;;;;;;64.53;30.20;;;3.90;99.90;;;;;;5075697;28;20190;-75
2021/12/10 12:43:34;;;;;;;63.30;28.95;;;3.90;99.90;;;;;;5075462;28;20193;-75
2021/12/10 12:46:09;;;;;;;61.50;31.02;;;4.00;99.90;;;;;;5075476;28;20200;-75
2021/12/10 12:48:37;;;;;;;59.08;27.83;;;3.90;99.90;;;;;;5075270;28;20259;-77
2021/12/10 12:51:11;;;;;;;53.05;28.13;;;3.90;99.90;;;;;;5075536;28;20225;-75
2021/12/10 12:53:38;;;;;;;59.60;29.27;;;4.00;99.90;;;;;;5075379;28;20189;-75